College Estates, Maryland
Current Conditions -  °F | °C
As of 12:55 PM on Thursday 27 Nov 2014 (Local Time) from KFDK Reporting Station
Broken Clouds Broken Clouds  
Wind Chill: 41°   Ceiling: 6500
Heat Index: 45°   Visibility: 10mi
Dew Point: 28°   Wind: 7mph
Humidity: 53%   Direction: 350°N
Pressure: 30.07"   Gusts: NA
Location:  39.478°N, 77.4561°W
Report Text: KFDK 271755Z 35006KT 10SM SCT050 BKN065 07/M02 A3007
Loading
Personal Weather Stations






























Interactive Weather Map New forecast layout! Learn more

10-Day Weather Forecast

Advertisements
Track Severe Weather on mobile